createdAt,value
2022-12-07T00:01:42.186Z,6.00
2022-12-07T00:04:11.838Z,6.50
2022-12-07T00:06:40.823Z,6.33
2022-12-07T00:09:10.243Z,5.87
2022-12-07T00:11:37.008Z,6.27
2022-12-07T00:14:06.644Z,5.83
2022-12-07T00:16:34.983Z,5.67
2022-12-07T00:19:02.801Z,6.77
2022-12-07T00:21:31.867Z,6.30
2022-12-07T00:23:59.110Z,6.30
2022-12-07T00:26:28.883Z,6.57
2022-12-07T00:28:59.382Z,6.13
2022-12-07T00:31:32.371Z,6.70
2022-12-07T00:33:59.494Z,6.50
2022-12-07T00:36:27.540Z,6.40
2022-12-07T00:38:59.473Z,6.67
2022-12-07T00:41:29.941Z,6.63
2022-12-07T00:43:57.251Z,6.50
2022-12-07T00:46:24.802Z,6.93
2022-12-07T00:48:53.146Z,6.50
2022-12-07T00:51:22.141Z,6.93
2022-12-07T00:53:49.065Z,6.77
2022-12-07T00:56:18.977Z,6.90
2022-12-07T00:58:50.877Z,7.37
2022-12-07T01:01:17.914Z,6.40
2022-12-07T01:03:44.804Z,7.30
2022-12-07T01:06:15.586Z,6.93
2022-12-07T01:08:42.467Z,6.70
2022-12-07T01:11:12.810Z,7.30
2022-12-07T01:13:39.553Z,7.23
2022-12-07T01:16:07.426Z,7.17
2022-12-07T01:18:35.849Z,6.23
2022-12-07T01:21:07.713Z,6.50
2022-12-07T01:23:35.877Z,6.73
2022-12-07T01:26:06.351Z,6.77
2022-12-07T01:28:33.278Z,6.93
2022-12-07T01:31:10.861Z,6.90
2022-12-07T01:33:38.825Z,6.57
2022-12-07T01:36:20.496Z,7.20
2022-12-07T01:38:48.648Z,7.10
2022-12-07T01:41:17.172Z,7.10
2022-12-07T01:44:21.699Z,6.73
2022-12-07T01:46:56.810Z,6.93
2022-12-07T01:49:34.938Z,7.27
2022-12-07T01:52:14.385Z,6.40
2022-12-07T01:54:41.383Z,6.67
2022-12-07T01:57:09.346Z,6.80
2022-12-07T01:59:36.259Z,7.03
2022-12-07T02:02:05.705Z,7.50
2022-12-07T02:04:32.610Z,7.27
2022-12-07T02:06:59.439Z,7.20
2022-12-07T02:09:26.394Z,7.30
2022-12-07T02:11:53.555Z,7.20
2022-12-07T02:14:20.320Z,6.47
2022-12-07T02:16:56.430Z,7.07
2022-12-07T02:20:01.347Z,7.47
2022-12-07T02:22:37.476Z,7.60
2022-12-07T02:25:15.132Z,7.77
2022-12-07T02:27:49.159Z,7.60
2022-12-07T02:30:18.971Z,7.53
2022-12-07T02:33:00.731Z,7.50
2022-12-07T02:35:41.884Z,7.67
2022-12-07T02:38:13.449Z,8.03
2022-12-07T02:40:51.451Z,7.23
2022-12-07T02:43:25.538Z,7.97
2022-12-07T02:45:54.035Z,8.27
2022-12-07T02:48:21.882Z,6.93
2022-12-07T02:50:53.520Z,7.60
2022-12-07T02:53:33.564Z,8.13
2022-12-07T02:56:07.369Z,7.10
2022-12-07T02:58:45.169Z,8.20
2022-12-07T03:01:27.693Z,8.97
2022-12-07T03:04:25.915Z,8.50
2022-12-07T03:07:01.716Z,8.83
2022-12-07T03:09:53.354Z,7.70
2022-12-07T03:12:25.279Z,8.87
2022-12-07T03:15:04.319Z,9.50
2022-12-07T03:17:33.276Z,8.83
2022-12-07T03:20:03.036Z,8.97
2022-12-07T03:22:32.289Z,9.60
2022-12-07T03:25:00.410Z,9.00
2022-12-07T03:27:32.582Z,8.77
2022-12-07T03:30:06.152Z,9.50
2022-12-07T03:32:42.141Z,9.23
2022-12-07T03:35:17.010Z,8.73
2022-12-07T03:37:46.935Z,9.43
2022-12-07T03:40:28.739Z,9.00
2022-12-07T03:42:56.593Z,9.40
2022-12-07T03:45:35.787Z,9.00
2022-12-07T03:48:11.737Z,9.50
2022-12-07T03:50:44.560Z,8.90
2022-12-07T03:53:40.234Z,9.50
2022-12-07T03:56:08.220Z,9.47
2022-12-07T03:58:35.495Z,9.50
2022-12-07T04:01:02.367Z,9.00
2022-12-07T04:03:29.208Z,8.50
2022-12-07T04:05:55.999Z,8.67
2022-12-07T04:08:23.172Z,9.37
2022-12-07T04:10:50.181Z,8.13
2022-12-07T04:13:16.888Z,7.70
2022-12-07T04:15:43.698Z,7.10
2022-12-07T04:18:10.502Z,7.03
2022-12-07T04:20:37.301Z,8.10
2022-12-07T04:23:03.973Z,7.93
2022-12-07T04:25:31.588Z,7.73
2022-12-07T04:27:58.452Z,8.20
2022-12-07T04:30:25.198Z,7.50
2022-12-07T04:32:51.888Z,7.53
2022-12-07T04:35:18.636Z,7.27
2022-12-07T04:37:45.364Z,7.40
2022-12-07T04:40:13.761Z,6.80
2022-12-07T04:42:40.503Z,7.13
2022-12-07T04:45:08.114Z,7.40
2022-12-07T04:47:35.003Z,7.27
2022-12-07T04:50:02.177Z,7.77
2022-12-07T04:52:29.429Z,7.27
2022-12-07T04:54:56.164Z,7.67
2022-12-07T04:57:22.984Z,7.97
2022-12-07T04:59:49.660Z,8.50
2022-12-07T05:02:16.528Z,8.33
2022-12-07T05:04:43.284Z,8.17
2022-12-07T05:07:10.147Z,7.93
2022-12-07T05:09:36.795Z,7.50
2022-12-07T05:12:03.777Z,7.50
2022-12-07T05:14:30.506Z,7.00
2022-12-07T05:16:57.357Z,7.50
2022-12-07T05:19:24.041Z,7.10
2022-12-07T05:21:50.804Z,7.27
2022-12-07T05:24:18.669Z,7.23
2022-12-07T05:26:46.227Z,7.70
2022-12-07T05:29:14.783Z,8.60
2022-12-07T05:31:41.946Z,7.33
2022-12-07T05:34:09.076Z,7.30
2022-12-07T05:36:35.927Z,8.17
2022-12-07T05:39:02.808Z,6.93
2022-12-07T05:41:48.109Z,6.50
2022-12-07T05:44:14.935Z,7.20
2022-12-07T05:46:41.618Z,6.90
2022-12-07T05:49:08.349Z,7.70
2022-12-07T05:51:34.984Z,7.00
2022-12-07T05:54:01.774Z,6.40
2022-12-07T05:56:28.446Z,6.63
2022-12-07T05:59:13.723Z,6.80
2022-12-07T06:01:41.213Z,7.10
2022-12-07T06:04:07.965Z,6.37
2022-12-07T06:06:34.731Z,6.30
2022-12-07T06:09:01.589Z,7.47
2022-12-07T06:11:46.994Z,7.37
2022-12-07T06:14:13.862Z,6.20
2022-12-07T06:16:40.739Z,6.77
2022-12-07T06:19:07.596Z,6.27
2022-12-07T06:21:34.334Z,6.47
2022-12-07T06:24:01.415Z,6.30
2022-12-07T06:26:28.245Z,6.80
2022-12-07T06:28:55.007Z,6.17
2022-12-07T06:31:21.759Z,5.97
2022-12-07T06:33:48.862Z,6.23
2022-12-07T06:36:15.623Z,6.67
2022-12-07T06:38:42.386Z,6.33
2022-12-07T06:41:09.035Z,6.07
2022-12-07T06:43:35.874Z,6.30
2022-12-07T06:46:04.661Z,6.90
2022-12-07T06:48:31.429Z,7.03
2022-12-07T06:51:00.977Z,6.33
2022-12-07T06:53:28.548Z,6.03
2022-12-07T06:55:55.583Z,7.03
2022-12-07T06:58:22.489Z,6.03
2022-12-07T07:00:50.670Z,6.97
2022-12-07T07:03:17.759Z,6.23
2022-12-07T07:05:45.792Z,6.30
2022-12-07T07:08:22.277Z,6.30
2022-12-07T07:10:49.770Z,6.27
2022-12-07T07:13:16.409Z,6.90
2022-12-07T07:15:43.594Z,7.87
2022-12-07T07:18:10.519Z,7.20
2022-12-07T07:20:37.907Z,7.33
2022-12-07T07:23:04.843Z,7.20
2022-12-07T07:25:32.464Z,6.63
2022-12-07T07:27:59.704Z,6.73
2022-12-07T07:30:27.325Z,5.97
2022-12-07T07:33:02.445Z,6.17
2022-12-07T07:35:30.915Z,5.70
2022-12-07T07:37:57.924Z,4.90
2022-12-07T07:40:25.681Z,5.20
2022-12-07T07:42:53.753Z,5.53
2022-12-07T07:45:22.350Z,5.10
2022-12-07T07:47:49.367Z,5.33
2022-12-07T07:50:17.123Z,5.20
2022-12-07T07:52:44.263Z,4.80
2022-12-07T07:55:11.745Z,5.13
2022-12-07T07:57:39.571Z,4.67
2022-12-07T08:00:12.563Z,4.70
2022-12-07T08:02:40.045Z,4.83
2022-12-07T08:05:10.076Z,5.03
2022-12-07T08:07:37.148Z,5.57
2022-12-07T08:10:04.895Z,5.83
2022-12-07T08:12:31.960Z,5.37
2022-12-07T08:14:58.744Z,5.90
2022-12-07T08:17:25.451Z,5.70
2022-12-07T08:19:52.154Z,5.30
2022-12-07T08:22:20.084Z,4.60
2022-12-07T08:24:47.597Z,4.30
2022-12-07T08:27:14.461Z,4.20
2022-12-07T08:29:41.204Z,4.27
2022-12-07T08:32:09.872Z,3.73
2022-12-07T08:34:38.331Z,4.13
2022-12-07T08:37:05.008Z,4.73
2022-12-07T08:39:32.800Z,4.00
2022-12-07T08:42:00.080Z,4.90
2022-12-07T08:44:26.976Z,4.73
2022-12-07T08:47:04.130Z,4.30
2022-12-07T08:49:46.493Z,4.97
2022-12-07T08:52:13.478Z,4.87
2022-12-07T08:54:41.263Z,4.40
2022-12-07T08:57:08.315Z,4.40
2022-12-07T08:59:36.344Z,4.40
2022-12-07T09:02:04.997Z,4.67
2022-12-07T09:04:32.555Z,5.57
2022-12-07T09:07:00.180Z,5.73
2022-12-07T09:09:26.920Z,5.20
2022-12-07T09:11:53.989Z,5.47
2022-12-07T09:14:20.864Z,6.03
2022-12-07T09:16:50.997Z,5.10
2022-12-07T09:19:17.923Z,4.57
2022-12-07T09:21:44.650Z,4.43
2022-12-07T09:24:13.282Z,3.97
2022-12-07T09:26:41.541Z,4.37
2022-12-07T09:29:08.544Z,3.80
2022-12-07T09:31:38.399Z,4.50
2022-12-07T09:34:07.149Z,4.10
2022-12-07T09:36:34.300Z,4.83
2022-12-07T09:39:01.120Z,4.53
2022-12-07T09:41:29.367Z,4.30
2022-12-07T09:44:04.179Z,3.97
2022-12-07T09:46:39.471Z,3.90
2022-12-07T09:49:07.048Z,4.90
2022-12-07T09:51:33.797Z,4.60
2022-12-07T09:54:01.291Z,4.30
2022-12-07T09:56:31.503Z,4.40
2022-12-07T09:59:03.896Z,4.13
2022-12-07T10:01:34.707Z,3.50
2022-12-07T10:04:11.693Z,4.17
2022-12-07T10:06:38.520Z,3.63
2022-12-07T10:09:16.339Z,3.33
2022-12-07T10:12:06.505Z,3.80
2022-12-07T10:17:44.669Z,4.10
2022-12-07T10:20:17.539Z,4.13
2022-12-07T10:22:59.400Z,3.53
2022-12-07T10:25:30.373Z,4.00
2022-12-07T10:28:10.545Z,4.30
2022-12-07T10:31:00.553Z,4.53
2022-12-07T10:33:42.159Z,4.30
2022-12-07T10:36:20.255Z,4.30
2022-12-07T10:38:49.781Z,3.57
2022-12-07T10:41:17.487Z,3.43
2022-12-07T10:43:53.117Z,3.53
2022-12-07T10:46:22.928Z,3.20
2022-12-07T10:49:16.234Z,3.20
2022-12-07T10:52:02.185Z,3.30
2022-12-07T10:54:41.369Z,3.10
2022-12-07T10:57:26.968Z,3.17
2022-12-07T11:00:03.452Z,2.70
2022-12-07T11:02:42.559Z,3.07
2022-12-07T11:05:29.277Z,2.77
2022-12-07T11:08:22.273Z,3.10
2022-12-07T11:11:04.321Z,3.20
2022-12-07T11:13:49.995Z,3.07
2022-12-07T11:16:22.953Z,3.27
2022-12-07T11:19:07.991Z,3.40
2022-12-07T11:21:39.069Z,3.77
2022-12-07T11:24:18.591Z,4.80
2022-12-07T11:26:51.331Z,3.83
2022-12-07T11:29:28.451Z,4.10
2022-12-07T11:32:13.708Z,3.93
2022-12-07T11:34:50.196Z,4.50
2022-12-07T11:37:20.139Z,4.63
2022-12-07T11:40:02.143Z,4.43
2022-12-07T11:42:34.588Z,3.87
2022-12-07T11:45:11.995Z,4.07
2022-12-07T11:47:51.573Z,4.20
2022-12-07T11:50:33.662Z,4.30
2022-12-07T11:53:11.101Z,3.83
2022-12-07T11:56:15.381Z,3.63
2022-12-07T11:58:50.375Z,3.47
2022-12-07T12:01:24.169Z,3.50
2022-12-07T12:03:53.820Z,3.50
2022-12-07T12:06:22.662Z,3.43
2022-12-07T12:15:01.799Z,3.67
2022-12-07T12:17:41.220Z,3.73
2022-12-07T12:21:02.680Z,4.17
2022-12-07T12:23:36.530Z,4.30
2022-12-07T12:26:05.670Z,4.60
2022-12-07T12:28:44.175Z,4.00
2022-12-07T12:31:18.794Z,3.87
2022-12-07T12:33:54.213Z,3.80
2022-12-07T12:36:48.915Z,3.33
2022-12-07T12:39:20.366Z,3.30
2022-12-07T12:41:50.047Z,2.83
2022-12-07T12:44:16.703Z,3.27
2022-12-07T12:46:52.762Z,3.60
2022-12-07T12:49:22.248Z,3.20
2022-12-07T12:51:52.995Z,3.27
2022-12-07T12:54:20.947Z,3.17
2022-12-07T12:57:00.978Z,3.07
2022-12-07T12:59:29.524Z,3.63
2022-12-07T13:02:08.980Z,3.70
2022-12-07T13:04:41.851Z,3.23
2022-12-07T13:07:12.901Z,3.23
2022-12-07T13:09:43.657Z,3.13
2022-12-07T13:12:15.487Z,2.87
2022-12-07T13:14:55.679Z,2.63
2022-12-07T13:17:31.677Z,2.77
2022-12-07T13:20:12.748Z,2.87
2022-12-07T13:22:45.596Z,3.00
2022-12-07T13:25:37.743Z,2.77
2022-12-07T13:28:17.602Z,2.80
2022-12-07T13:31:23.417Z,2.80
2022-12-07T13:33:50.322Z,2.90
2022-12-07T13:36:24.498Z,2.57
2022-12-07T13:38:58.445Z,2.40
2022-12-07T13:41:29.608Z,1.80
2022-12-07T13:44:18.206Z,2.23
2022-12-07T13:47:03.646Z,2.50
2022-12-07T13:49:32.718Z,2.50
2022-12-07T13:52:29.703Z,2.40
2022-12-07T13:54:56.440Z,2.20
2022-12-07T13:57:24.105Z,3.33
2022-12-07T13:59:51.010Z,2.60
2022-12-07T14:02:34.021Z,2.47
2022-12-07T14:05:15.294Z,2.43
2022-12-07T14:08:05.966Z,2.13
2022-12-07T14:10:41.495Z,2.63
2022-12-07T14:13:42.118Z,6.90
2022-12-07T14:16:29.901Z,2.43
2022-12-07T14:19:02.030Z,1.90
2022-12-07T14:21:30.778Z,1.97
2022-12-07T14:24:18.680Z,2.87
2022-12-07T14:26:50.670Z,1.93
2022-12-07T14:29:31.571Z,1.77
2022-12-07T14:32:18.743Z,2.00
2022-12-07T14:35:00.667Z,1.60
2022-12-07T14:37:28.841Z,1.80
2022-12-07T14:39:55.800Z,1.87
2022-12-07T14:42:24.792Z,2.00
2022-12-07T14:44:51.551Z,2.10
2022-12-07T14:50:06.749Z,2.47
2022-12-07T14:55:25.298Z,3.20
2022-12-07T14:57:52.671Z,5.10
2022-12-07T15:00:20.499Z,5.27
2022-12-07T15:02:48.627Z,7.83
2022-12-07T15:05:16.725Z,3.80
2022-12-07T15:07:45.408Z,4.47
2022-12-07T15:10:31.204Z,2.83
2022-12-07T15:13:18.804Z,3.20
2022-12-07T15:15:45.786Z,2.20
2022-12-07T15:18:12.698Z,2.23
2022-12-07T15:20:39.995Z,2.03
2022-12-07T15:23:07.309Z,1.97
2022-12-07T15:25:34.248Z,2.10
2022-12-07T15:28:01.015Z,2.07
2022-12-07T15:30:27.824Z,2.43
2022-12-07T15:32:55.603Z,2.43
2022-12-07T15:35:22.570Z,2.47
2022-12-07T15:37:49.497Z,2.53
2022-12-07T15:40:16.447Z,2.17
2022-12-07T15:42:43.374Z,2.27
2022-12-07T15:45:11.299Z,2.50
2022-12-07T15:48:19.817Z,2.40
2022-12-07T15:50:28.654Z,2.50
2022-12-07T15:52:55.656Z,2.20
2022-12-07T15:55:22.643Z,2.40
2022-12-07T15:57:50.551Z,2.97
2022-12-07T16:00:17.857Z,2.80
2022-12-07T16:02:44.689Z,2.77
2022-12-07T16:05:11.584Z,2.63
2022-12-07T16:07:38.721Z,2.93
2022-12-07T16:10:06.483Z,2.80
2022-12-07T16:12:36.572Z,3.17
2022-12-07T16:15:03.664Z,3.10
2022-12-07T16:17:30.628Z,2.77
2022-12-07T16:19:58.532Z,2.90
2022-12-07T16:22:25.950Z,3.37
2022-12-07T16:24:52.878Z,2.87
2022-12-07T16:27:19.805Z,3.73
2022-12-07T16:29:46.645Z,2.93
2022-12-07T16:32:13.431Z,3.17
2022-12-07T16:34:40.784Z,3.30
2022-12-07T16:37:07.584Z,3.20
2022-12-07T16:39:35.493Z,3.13
2022-12-07T16:42:02.536Z,3.47
2022-12-07T16:44:29.797Z,3.30
2022-12-07T16:46:57.239Z,3.80
2022-12-07T16:49:25.349Z,3.40
2022-12-07T16:52:14.759Z,3.77
2022-12-07T16:54:39.981Z,3.30
2022-12-07T16:57:06.739Z,3.60
2022-12-07T16:59:33.664Z,3.73
2022-12-07T17:02:00.542Z,2.93
2022-12-07T17:04:27.478Z,3.37
2022-12-07T17:06:54.932Z,3.20
2022-12-07T17:09:21.877Z,2.80
2022-12-07T17:11:48.763Z,3.13
2022-12-07T17:14:34.217Z,2.53
2022-12-07T17:17:01.046Z,3.57
2022-12-07T17:19:27.832Z,2.83
2022-12-07T17:21:54.655Z,3.23
2022-12-07T17:24:21.668Z,2.80
2022-12-07T17:26:48.811Z,2.80
2022-12-07T17:29:17.260Z,1.90
2022-12-07T17:31:49.468Z,2.37
2022-12-07T17:34:19.068Z,2.77
2022-12-07T17:36:46.675Z,2.43
2022-12-07T17:39:16.306Z,2.73
2022-12-07T17:42:01.719Z,2.90
2022-12-07T17:44:29.427Z,2.90
2022-12-07T17:46:59.822Z,3.03
2022-12-07T17:49:27.505Z,2.90
2022-12-07T17:52:13.312Z,2.60
2022-12-07T17:54:40.110Z,3.00
2022-12-07T17:57:07.166Z,3.00
2022-12-07T17:59:34.340Z,3.57
2022-12-07T18:02:01.160Z,3.20
2022-12-07T18:04:28.194Z,3.17
2022-12-07T18:06:55.191Z,3.00
2022-12-07T18:09:22.799Z,3.40
2022-12-07T18:11:49.925Z,3.93
2022-12-07T18:14:18.997Z,3.77
2022-12-07T18:16:46.001Z,3.27
2022-12-07T18:19:17.420Z,3.40
2022-12-07T18:21:44.905Z,3.57
2022-12-07T18:24:13.277Z,3.30
2022-12-07T18:26:40.622Z,3.97
2022-12-07T18:29:08.472Z,3.87
2022-12-07T18:31:36.848Z,3.73
2022-12-07T18:34:08.896Z,3.80
2022-12-07T18:36:35.939Z,3.90
2022-12-07T18:39:05.453Z,4.20
2022-12-07T18:41:32.373Z,3.93
2022-12-07T18:43:59.295Z,4.23
2022-12-07T18:46:26.309Z,3.67
2022-12-07T18:48:53.108Z,4.17
2022-12-07T18:51:20.312Z,4.70
2022-12-07T18:53:47.465Z,4.77
2022-12-07T18:56:15.980Z,4.70
2022-12-07T18:59:02.143Z,4.10
2022-12-07T19:01:30.557Z,4.60
2022-12-07T19:03:58.268Z,4.60
2022-12-07T19:06:25.569Z,4.97
2022-12-07T19:08:53.399Z,4.73
2022-12-07T19:11:50.417Z,4.17
2022-12-07T19:14:25.862Z,4.93
2022-12-07T19:16:55.588Z,4.70
2022-12-07T19:19:25.152Z,4.97
2022-12-07T19:21:51.877Z,4.77
2022-12-07T19:24:23.203Z,5.70
2022-12-07T19:26:51.492Z,4.83
2022-12-07T19:29:18.446Z,5.10
2022-12-07T19:31:45.345Z,5.57
2022-12-07T19:34:13.532Z,5.23
2022-12-07T19:36:40.391Z,5.50
2022-12-07T19:39:12.928Z,6.63
2022-12-07T19:41:44.371Z,7.63
2022-12-07T19:44:17.045Z,8.37
2022-12-07T19:46:46.749Z,7.57
2022-12-07T19:49:17.589Z,7.33
2022-12-07T19:51:45.896Z,7.83
2022-12-07T19:54:14.925Z,7.93
2022-12-07T19:56:42.736Z,8.40
2022-12-07T19:59:10.276Z,8.37
2022-12-07T20:01:38.129Z,7.93
2022-12-07T20:04:06.444Z,8.00
2022-12-07T20:06:33.242Z,8.17
2022-12-07T20:09:00.431Z,8.37
2022-12-07T20:11:46.300Z,8.40
2022-12-07T20:14:14.138Z,8.33
2022-12-07T20:16:41.323Z,7.77
2022-12-07T20:19:09.051Z,7.97
2022-12-07T20:21:36.718Z,7.07
2022-12-07T20:24:05.051Z,6.17
2022-12-07T20:26:34.648Z,6.13
2022-12-07T20:29:07.805Z,5.77
2022-12-07T20:31:36.231Z,5.17
2022-12-07T20:34:03.727Z,5.43
2022-12-07T20:36:33.349Z,5.00
2022-12-07T20:39:01.778Z,5.20
2022-12-07T20:41:47.545Z,5.30
2022-12-07T20:44:14.720Z,4.63
2022-12-07T20:46:41.715Z,6.27
2022-12-07T20:49:09.885Z,5.43
2022-12-07T20:51:36.798Z,5.83
2022-12-07T20:54:05.012Z,5.90
2022-12-07T20:56:33.496Z,5.20
2022-12-07T20:59:05.150Z,5.20
2022-12-07T21:01:32.247Z,5.87
2022-12-07T21:04:00.739Z,5.80
2022-12-07T21:06:31.649Z,5.40
2022-12-07T21:08:59.738Z,5.00
2022-12-07T21:11:28.394Z,5.43
2022-12-07T21:13:55.403Z,4.67
2022-12-07T21:16:30.278Z,4.90
2022-12-07T21:19:00.172Z,4.63
2022-12-07T21:21:26.923Z,4.67
2022-12-07T21:24:01.561Z,5.40
2022-12-07T21:26:29.608Z,4.73
2022-12-07T21:28:57.573Z,4.10
2022-12-07T21:31:26.808Z,4.47
2022-12-07T21:33:53.898Z,4.47
2022-12-07T21:36:23.359Z,4.00
2022-12-07T21:38:50.704Z,4.40
2022-12-07T21:41:21.925Z,3.77
2022-12-07T21:43:49.208Z,4.40
2022-12-07T21:46:18.199Z,3.63
2022-12-07T21:48:57.602Z,3.73
2022-12-07T21:51:27.421Z,3.93
2022-12-07T21:53:55.248Z,4.23
2022-12-07T21:56:26.581Z,3.53
2022-12-07T21:58:54.767Z,3.43
2022-12-07T22:01:23.743Z,3.70
2022-12-07T22:03:51.738Z,3.93
2022-12-07T22:06:21.734Z,4.27
2022-12-07T22:08:48.663Z,3.70
2022-12-07T22:11:15.815Z,3.63
2022-12-07T22:14:08.300Z,3.40
2022-12-07T22:16:40.755Z,3.90
2022-12-07T22:19:08.015Z,3.50
2022-12-07T22:21:37.368Z,3.80
2022-12-07T22:24:05.431Z,3.50
2022-12-07T22:26:32.579Z,3.60
2022-12-07T22:29:02.790Z,3.73
2022-12-07T22:31:29.768Z,3.90
2022-12-07T22:33:56.820Z,3.70
2022-12-07T22:36:23.892Z,3.37
2022-12-07T22:38:50.597Z,2.53
2022-12-07T22:41:25.554Z,1.90
2022-12-07T22:43:52.844Z,1.70
2022-12-07T22:46:20.335Z,1.53
2022-12-07T22:48:47.419Z,1.70
2022-12-07T22:51:27.373Z,1.43
2022-12-07T22:53:55.164Z,2.20
2022-12-07T22:56:22.597Z,1.80
2022-12-07T22:58:51.938Z,1.70
2022-12-07T23:01:20.079Z,1.80
2022-12-07T23:03:47.132Z,1.97
2022-12-07T23:06:17.189Z,1.73
2022-12-07T23:08:44.646Z,1.87
2022-12-07T23:11:37.495Z,2.10
2022-12-07T23:14:06.715Z,2.00
2022-12-07T23:16:33.732Z,2.40
2022-12-07T23:19:00.546Z,2.20
2022-12-07T23:21:27.422Z,2.90
2022-12-07T23:23:54.162Z,2.73
2022-12-07T23:26:20.941Z,2.73
2022-12-07T23:28:47.703Z,2.97
2022-12-07T23:31:17.219Z,3.30
2022-12-07T23:33:44.453Z,3.40
2022-12-07T23:36:16.705Z,3.73
2022-12-07T23:38:45.518Z,3.50
2022-12-07T23:41:14.402Z,5.23
2022-12-07T23:43:42.411Z,4.57
2022-12-07T23:46:13.414Z,5.00
2022-12-07T23:48:40.744Z,5.50
2022-12-07T23:51:08.621Z,5.50
2022-12-07T23:53:37.269Z,6.10
2022-12-07T23:56:04.499Z,6.27
2022-12-07T23:58:31.615Z,6.73
